createdAt,value
2022-10-07T00:01:50.846Z,100409.42
2022-10-07T00:04:57.017Z,100407.96
2022-10-07T00:08:02.000Z,100412.70
2022-10-07T00:11:11.425Z,100408.00
2022-10-07T00:14:17.850Z,100408.41
2022-10-07T00:17:24.038Z,100410.14
2022-10-07T00:20:28.574Z,100410.38
2022-10-07T00:23:34.835Z,100411.85
2022-10-07T00:26:41.348Z,100414.06
2022-10-07T00:29:47.714Z,100411.33
2022-10-07T00:32:53.941Z,100406.84
2022-10-07T00:36:00.289Z,100402.89
2022-10-07T00:39:08.795Z,100407.09
2022-10-07T00:42:15.774Z,100400.98
2022-10-07T00:45:22.047Z,100401.24
2022-10-07T00:48:32.343Z,100400.56
2022-10-07T00:51:40.307Z,100398.80
2022-10-07T00:54:46.573Z,100395.20
2022-10-07T00:57:56.135Z,100389.69
2022-10-07T01:01:02.849Z,100388.56
2022-10-07T01:04:10.076Z,100384.09
2022-10-07T01:07:21.877Z,100377.31
2022-10-07T01:10:37.380Z,100375.01
2022-10-07T01:13:48.747Z,100374.42
2022-10-07T01:17:02.294Z,100377.34
2022-10-07T01:20:32.007Z,100374.52
2022-10-07T01:23:58.376Z,100365.00
2022-10-07T01:27:07.482Z,100358.72
2022-10-07T01:30:14.789Z,100359.05
2022-10-07T01:33:27.995Z,100361.30
2022-10-07T01:36:38.304Z,100361.55
2022-10-07T01:39:49.950Z,100359.10
2022-10-07T01:42:56.954Z,100354.99
2022-10-07T01:46:04.923Z,100351.13
2022-10-07T01:49:11.193Z,100348.65
2022-10-07T01:52:45.348Z,100345.92
2022-10-07T01:56:11.998Z,100344.62
2022-10-07T01:59:51.361Z,100349.46
2022-10-07T02:03:21.574Z,100346.36
2022-10-07T02:06:38.757Z,100342.92
2022-10-07T02:09:50.784Z,100335.52
2022-10-07T02:13:06.057Z,100333.40
2022-10-07T02:16:18.516Z,100331.64
2022-10-07T02:19:29.975Z,100329.20
2022-10-07T02:22:37.262Z,100328.00
2022-10-07T02:25:46.888Z,100325.85
2022-10-07T02:28:55.592Z,100330.44
2022-10-07T02:32:05.647Z,100330.51
2022-10-07T02:35:19.050Z,100331.73
2022-10-07T02:38:26.426Z,100327.63
2022-10-07T02:41:41.958Z,100327.15
2022-10-07T02:44:53.574Z,100325.54
2022-10-07T02:48:04.407Z,100323.95
2022-10-07T02:51:21.073Z,100322.02
2022-10-07T02:54:34.761Z,100321.08
2022-10-07T02:57:43.882Z,100318.89
2022-10-07T03:00:54.506Z,100316.17
2022-10-07T03:04:01.632Z,100315.85
2022-10-07T03:07:08.353Z,100314.52
2022-10-07T03:10:15.267Z,100308.86
2022-10-07T03:13:21.468Z,100311.09
2022-10-07T03:16:26.069Z,100303.85
2022-10-07T03:19:32.241Z,100303.31
2022-10-07T03:22:37.005Z,100304.44
2022-10-07T03:25:43.135Z,100303.64
2022-10-07T03:28:47.839Z,100306.81
2022-10-07T03:31:54.802Z,100306.34
2022-10-07T03:35:00.955Z,100309.84
2022-10-07T03:38:08.412Z,100309.92
2022-10-07T03:41:14.701Z,100307.09
2022-10-07T03:44:22.632Z,100304.86
2022-10-07T03:47:28.878Z,100302.84
2022-10-07T03:50:33.328Z,100301.65
2022-10-07T03:53:40.697Z,100301.46
2022-10-07T03:56:46.834Z,100298.74
2022-10-07T03:59:53.756Z,100299.69
2022-10-07T04:03:00.005Z,100298.68
2022-10-07T04:06:06.535Z,100292.26
2022-10-07T04:09:15.434Z,100290.72
2022-10-07T04:12:21.552Z,100287.90
2022-10-07T04:15:27.767Z,100288.85
2022-10-07T04:18:32.634Z,100284.69
2022-10-07T04:21:38.830Z,100283.31
2022-10-07T04:24:43.366Z,100284.06
2022-10-07T04:27:54.230Z,100279.48
2022-10-07T04:31:00.537Z,100276.91
2022-10-07T04:34:07.002Z,100273.41
2022-10-07T04:37:13.170Z,100270.50
2022-10-07T04:40:17.684Z,100273.77
2022-10-07T04:43:26.960Z,100271.34
2022-10-07T04:46:33.194Z,100270.48
2022-10-07T04:49:37.727Z,100273.97
2022-10-07T04:52:44.564Z,100269.39
2022-10-07T04:55:52.367Z,100270.65
2022-10-07T04:58:58.529Z,100268.88
2022-10-07T05:02:03.111Z,100269.52
2022-10-07T05:05:10.798Z,100272.63
2022-10-07T05:08:18.527Z,100269.02
2022-10-07T05:11:26.061Z,100270.61
2022-10-07T05:14:32.990Z,100268.05
2022-10-07T05:17:41.207Z,100267.64
2022-10-07T05:20:48.442Z,100270.80
2022-10-07T05:23:54.615Z,100269.50
2022-10-07T05:26:59.157Z,100267.83
2022-10-07T05:30:05.722Z,100266.69
2022-10-07T05:33:12.204Z,100267.54
2022-10-07T05:36:18.956Z,100272.82
2022-10-07T05:39:25.162Z,100269.36
2022-10-07T05:42:29.736Z,100268.67
2022-10-07T05:45:35.801Z,100265.34
2022-10-07T05:48:42.434Z,100270.53
2022-10-07T05:51:49.228Z,100270.98
2022-10-07T05:54:55.405Z,100272.29
2022-10-07T05:58:00.030Z,100271.27
2022-10-07T06:01:13.103Z,100271.55
2022-10-07T06:04:20.606Z,100269.56
2022-10-07T06:07:29.283Z,100270.08
2022-10-07T06:10:57.672Z,100268.66
2022-10-07T06:14:04.370Z,100272.81
2022-10-07T06:17:10.606Z,100270.38
2022-10-07T06:20:15.283Z,100271.18
2022-10-07T06:23:21.408Z,100273.63
2022-10-07T06:26:27.582Z,100273.20
2022-10-07T06:29:33.980Z,100268.98
2022-10-07T06:32:40.106Z,100266.23
2022-10-07T06:35:47.393Z,100261.06
2022-10-07T06:38:54.604Z,100263.55
2022-10-07T06:42:00.895Z,100263.24
2022-10-07T06:45:08.594Z,100260.23
2022-10-07T06:48:14.798Z,100255.88
2022-10-07T06:51:20.011Z,100252.17
2022-10-07T06:54:26.248Z,100249.30
2022-10-07T06:57:45.339Z,100247.33
2022-10-07T07:00:58.188Z,100245.66
2022-10-07T07:04:04.520Z,100242.83
2022-10-07T07:07:11.827Z,100241.49
2022-10-07T07:10:18.130Z,100242.05
2022-10-07T07:13:24.816Z,100239.70
2022-10-07T07:16:31.567Z,100241.97
2022-10-07T07:19:37.875Z,100238.73
2022-10-07T07:22:44.332Z,100233.71
2022-10-07T07:25:50.599Z,100234.06
2022-10-07T07:28:58.994Z,100230.66
2022-10-07T07:32:06.406Z,100229.36
2022-10-07T07:35:12.974Z,100227.31
2022-10-07T07:38:24.773Z,100226.11
2022-10-07T07:41:33.640Z,100222.09
2022-10-07T07:44:40.357Z,100220.45
2022-10-07T07:47:49.613Z,100216.44
2022-10-07T07:50:55.886Z,100212.11
2022-10-07T07:54:02.453Z,100201.88
2022-10-07T07:57:09.046Z,100199.81
2022-10-07T08:00:16.458Z,100197.38
2022-10-07T08:03:22.952Z,100197.60
2022-10-07T08:06:30.352Z,100193.38
2022-10-07T08:09:36.608Z,100191.25
2022-10-07T08:12:42.760Z,100192.69
2022-10-07T08:15:47.717Z,100189.91
2022-10-07T08:18:55.546Z,100186.37
2022-10-07T08:22:01.820Z,100183.52
2022-10-07T08:25:09.571Z,100181.85
2022-10-07T08:28:16.742Z,100175.42
2022-10-07T08:31:23.439Z,100169.49
2022-10-07T08:34:29.727Z,100164.69
2022-10-07T08:37:35.808Z,100161.23
2022-10-07T08:40:49.699Z,100154.02
2022-10-07T08:43:59.356Z,100152.65
2022-10-07T08:47:17.031Z,100152.93
2022-10-07T08:50:27.795Z,100151.42
2022-10-07T08:53:36.793Z,100144.05
2022-10-07T08:56:43.962Z,100142.25
2022-10-07T08:59:56.396Z,100140.13
2022-10-07T09:03:13.602Z,100136.95
2022-10-07T09:06:33.037Z,100137.07
2022-10-07T09:09:44.925Z,100131.41
2022-10-07T09:12:56.526Z,100127.86
2022-10-07T09:16:10.320Z,100125.13
2022-10-07T09:19:23.748Z,100126.02
2022-10-07T09:22:34.329Z,100122.13
2022-10-07T09:25:45.238Z,100123.66
2022-10-07T09:28:51.560Z,100116.02
2022-10-07T09:31:59.265Z,100107.59
2022-10-07T09:35:06.227Z,100105.88
2022-10-07T09:38:12.471Z,100100.40
2022-10-07T09:41:26.819Z,100092.20
2022-10-07T09:44:40.239Z,100086.79
2022-10-07T09:47:52.729Z,100083.90
2022-10-07T09:51:16.236Z,100077.75
2022-10-07T09:54:22.943Z,100075.14
2022-10-07T09:57:38.872Z,100071.70
2022-10-07T10:00:47.962Z,100070.36
2022-10-07T10:04:01.062Z,100065.67
2022-10-07T10:07:19.605Z,100065.61
2022-10-07T10:10:28.619Z,100058.53
2022-10-07T10:14:36.272Z,100050.45
2022-10-07T10:17:43.262Z,100044.39
2022-10-07T10:20:49.446Z,100039.87
2022-10-07T10:23:58.252Z,100039.28
2022-10-07T10:27:12.672Z,100038.61
2022-10-07T10:30:23.477Z,100032.02
2022-10-07T10:33:37.528Z,100022.87
2022-10-07T10:36:51.696Z,100022.91
2022-10-07T10:40:09.812Z,100022.37
2022-10-07T10:43:23.983Z,100018.71
2022-10-07T10:46:49.662Z,100013.73
2022-10-07T10:50:08.317Z,100004.16
2022-10-07T10:53:27.654Z,99998.70
2022-10-07T10:56:42.590Z,99992.40
2022-10-07T11:00:04.793Z,99983.05
2022-10-07T11:03:27.956Z,99983.92
2022-10-07T11:06:38.341Z,99977.39
2022-10-07T11:09:49.840Z,99971.91
2022-10-07T11:12:59.284Z,99965.63
2022-10-07T11:16:12.589Z,99956.07
2022-10-07T11:19:24.185Z,99950.01
2022-10-07T11:22:40.603Z,99950.12
2022-10-07T11:25:53.838Z,99945.33
2022-10-07T11:29:03.353Z,99934.91
2022-10-07T11:32:14.337Z,99927.77
2022-10-07T11:35:30.224Z,99922.75
2022-10-07T11:38:39.044Z,99919.73
2022-10-07T11:41:53.326Z,99918.20
2022-10-07T11:45:03.769Z,99913.49
2022-10-07T11:48:15.898Z,99909.38
2022-10-07T11:51:28.792Z,99902.96
2022-10-07T11:54:44.704Z,99895.18
2022-10-07T11:57:55.865Z,99896.33
2022-10-07T12:01:47.893Z,99890.85
2022-10-07T12:04:54.200Z,99885.75
2022-10-07T12:08:02.291Z,99881.55
2022-10-07T12:11:45.822Z,99876.27
2022-10-07T12:15:02.389Z,99873.16
2022-10-07T12:18:28.581Z,99871.16
2022-10-07T12:22:11.918Z,99868.09
2022-10-07T12:25:33.256Z,99861.73
2022-10-07T12:28:48.820Z,99854.45
2022-10-07T12:31:53.410Z,99851.91
2022-10-07T12:35:19.665Z,99847.41
2022-10-07T12:38:28.081Z,99841.92
2022-10-07T12:41:44.064Z,99841.27
2022-10-07T12:44:52.790Z,99833.80
2022-10-07T12:48:02.714Z,99830.83
2022-10-07T12:51:19.878Z,99826.61
2022-10-07T12:54:32.591Z,99819.95
2022-10-07T12:57:42.188Z,99815.59
2022-10-07T13:01:01.214Z,99810.05
2022-10-07T13:04:31.854Z,99806.84
2022-10-07T13:08:21.246Z,99805.06
2022-10-07T13:12:11.567Z,99800.42
2022-10-07T13:15:33.838Z,99798.94
2022-10-07T13:18:45.542Z,99794.37
2022-10-07T13:22:00.959Z,99785.54
2022-10-07T13:25:13.140Z,99778.36
2022-10-07T13:28:22.485Z,99778.03
2022-10-07T13:31:30.722Z,99776.09
2022-10-07T13:34:38.238Z,99764.73
2022-10-07T13:37:48.869Z,99758.50
2022-10-07T13:41:04.757Z,99756.02
2022-10-07T13:44:15.462Z,99752.55
2022-10-07T13:47:22.808Z,99746.97
2022-10-07T13:50:30.852Z,99742.47
2022-10-07T13:53:38.623Z,99739.75
2022-10-07T13:56:45.903Z,99735.66
2022-10-07T13:59:53.084Z,99731.30
2022-10-07T14:02:59.418Z,99723.95
2022-10-07T14:06:05.717Z,99718.92
2022-10-07T14:09:22.568Z,99712.48
2022-10-07T14:12:35.261Z,99706.50
2022-10-07T14:15:51.047Z,99704.80
2022-10-07T14:18:57.619Z,99699.05
2022-10-07T14:22:06.050Z,99694.62
2022-10-07T14:25:21.014Z,99690.86
2022-10-07T14:28:34.721Z,99690.36
2022-10-07T14:31:58.734Z,99682.63
2022-10-07T14:35:19.967Z,99678.98
2022-10-07T14:38:30.287Z,99677.95
2022-10-07T14:41:36.620Z,99670.56
2022-10-07T14:44:44.121Z,99669.89
2022-10-07T14:47:51.322Z,99664.92
2022-10-07T14:50:57.445Z,99662.90
2022-10-07T14:54:08.096Z,99657.41
2022-10-07T14:57:14.323Z,99654.98
2022-10-07T15:00:23.156Z,99650.39
2022-10-07T15:03:31.055Z,99643.40
2022-10-07T15:06:38.079Z,99639.64
2022-10-07T15:09:45.181Z,99638.39
2022-10-07T15:12:51.346Z,99635.99
2022-10-07T15:15:57.590Z,99631.03
2022-10-07T15:19:04.075Z,99629.50
2022-10-07T15:22:10.495Z,99632.16
2022-10-07T15:25:18.137Z,99632.07
2022-10-07T15:28:24.434Z,99631.08
2022-10-07T15:31:31.789Z,99630.25
2022-10-07T15:34:37.896Z,99630.43
2022-10-07T15:37:46.034Z,99627.15
2022-10-07T15:40:57.193Z,99624.35
2022-10-07T15:44:04.951Z,99621.23
2022-10-07T15:47:11.391Z,99621.95
2022-10-07T15:50:17.644Z,99618.94
2022-10-07T15:53:25.545Z,99617.49
2022-10-07T15:56:31.912Z,99618.89
2022-10-07T15:59:38.204Z,99617.11
2022-10-07T16:02:44.880Z,99613.83
2022-10-07T16:05:58.540Z,99615.72
2022-10-07T16:09:05.870Z,99615.21
2022-10-07T16:12:11.989Z,99613.45
2022-10-07T16:15:18.392Z,99612.80
2022-10-07T16:18:24.605Z,99609.16
2022-10-07T16:21:33.190Z,99607.69
2022-10-07T16:24:39.867Z,99603.58
2022-10-07T16:28:03.825Z,99601.63
2022-10-07T16:31:10.228Z,99598.23
2022-10-07T16:34:18.485Z,99596.23
2022-10-07T16:37:24.457Z,99597.21
2022-10-07T16:40:28.969Z,99599.04
2022-10-07T16:43:35.973Z,99597.09
2022-10-07T16:46:42.803Z,99592.63
2022-10-07T16:49:48.985Z,99590.52
2022-10-07T16:52:55.034Z,99590.06
2022-10-07T16:56:02.083Z,99586.48
2022-10-07T16:59:09.895Z,99586.65
2022-10-07T17:02:17.117Z,99584.68
2022-10-07T17:05:23.094Z,99577.95
2022-10-07T17:08:29.491Z,99580.05
2022-10-07T17:11:38.170Z,99575.95
2022-10-07T17:14:44.323Z,99573.66
2022-10-07T17:17:53.897Z,99570.37
2022-10-07T17:21:00.243Z,99569.58
2022-10-07T17:24:06.890Z,99567.07
2022-10-07T17:27:12.871Z,99566.52
2022-10-07T17:30:17.629Z,99564.03
2022-10-07T17:33:23.789Z,99563.41
2022-10-07T17:36:32.157Z,99558.98
2022-10-07T17:39:38.252Z,99557.68
2022-10-07T17:42:42.799Z,99558.15
2022-10-07T17:45:49.338Z,99557.31
2022-10-07T17:48:57.513Z,99559.38
2022-10-07T17:52:03.555Z,99553.11
2022-10-07T17:55:09.134Z,99547.23
2022-10-07T17:58:15.327Z,99544.34
2022-10-07T18:01:24.284Z,99539.69
2022-10-07T18:04:31.242Z,99536.34
2022-10-07T18:07:37.409Z,99536.06
2022-10-07T18:10:43.556Z,99532.67
2022-10-07T18:14:07.068Z,99531.71
2022-10-07T18:17:13.640Z,99526.14
2022-10-07T18:20:21.402Z,99524.66
2022-10-07T18:23:29.552Z,99525.83
2022-10-07T18:26:35.614Z,99522.64
2022-10-07T18:29:40.207Z,99526.58
2022-10-07T18:32:46.274Z,99523.89
2022-10-07T18:35:50.830Z,99521.06
2022-10-07T18:38:56.715Z,99519.07
2022-10-07T18:42:04.552Z,99519.58
2022-10-07T18:45:12.244Z,99517.45
2022-10-07T18:48:18.416Z,99515.56
2022-10-07T18:51:24.595Z,99512.20
2022-10-07T18:54:30.674Z,99511.73
2022-10-07T18:57:35.129Z,99511.77
2022-10-07T19:00:44.245Z,99511.70
2022-10-07T19:03:55.248Z,99509.05
2022-10-07T19:07:02.723Z,99507.09
2022-10-07T19:10:10.985Z,99505.08
2022-10-07T19:13:35.413Z,99505.71
2022-10-07T19:16:43.074Z,99503.27
2022-10-07T19:19:49.259Z,99501.31
2022-10-07T19:22:53.803Z,99501.46
2022-10-07T19:26:01.950Z,99503.85
2022-10-07T19:29:10.227Z,99503.19
2022-10-07T19:32:16.304Z,99503.88
2022-10-07T19:35:20.840Z,99499.36
2022-10-07T19:38:27.388Z,99499.68
2022-10-07T19:41:36.115Z,99501.16
2022-10-07T19:44:43.351Z,99499.87
2022-10-07T19:47:49.623Z,99498.90
2022-10-07T19:51:02.103Z,99499.63
2022-10-07T19:54:12.088Z,99495.48
2022-10-07T19:57:17.968Z,99494.11
2022-10-07T20:00:25.733Z,99497.98
2022-10-07T20:03:31.874Z,99502.02
2022-10-07T20:06:37.666Z,99501.14
2022-10-07T20:09:42.155Z,99505.00
2022-10-07T20:12:48.265Z,99505.20
2022-10-07T20:15:53.202Z,99501.85
2022-10-07T20:19:05.642Z,99503.48
2022-10-07T20:22:12.759Z,99501.98
2022-10-07T20:25:19.027Z,99502.96
2022-10-07T20:28:25.549Z,99499.38
2022-10-07T20:31:34.056Z,99496.14
2022-10-07T20:34:40.041Z,99493.87
2022-10-07T20:37:46.174Z,99492.20
2022-10-07T20:41:14.188Z,99491.58
2022-10-07T20:44:20.862Z,99493.92
2022-10-07T20:47:30.080Z,99488.28
2022-10-07T20:50:36.338Z,99488.48
2022-10-07T20:53:42.323Z,99483.98
2022-10-07T20:56:49.013Z,99484.09
2022-10-07T20:59:55.374Z,99485.80
2022-10-07T21:03:01.748Z,99490.55
2022-10-07T21:06:09.647Z,99484.27
2022-10-07T21:09:16.063Z,99482.23
2022-10-07T21:12:22.495Z,99480.72
2022-10-07T21:15:29.418Z,99481.30
2022-10-07T21:18:35.640Z,99478.83
2022-10-07T21:21:40.066Z,99476.15
2022-10-07T21:24:46.648Z,99474.39
2022-10-07T21:27:53.725Z,99473.00
2022-10-07T21:31:01.171Z,99472.75
2022-10-07T21:34:08.757Z,99473.30
2022-10-07T21:37:15.027Z,99472.67
2022-10-07T21:40:21.948Z,99472.30
2022-10-07T21:43:28.228Z,99470.74
2022-10-07T21:46:36.860Z,99470.52
2022-10-07T21:49:43.023Z,99466.66
2022-10-07T21:52:47.805Z,99463.02
2022-10-07T21:55:55.021Z,99461.27
2022-10-07T21:59:03.752Z,99460.25
2022-10-07T22:02:10.111Z,99457.11
2022-10-07T22:05:16.380Z,99456.16
2022-10-07T22:08:39.541Z,99451.80
2022-10-07T22:11:46.015Z,99447.74
2022-10-07T22:14:52.359Z,99445.22
2022-10-07T22:17:58.419Z,99442.85
2022-10-07T22:21:12.926Z,99441.65
2022-10-07T22:24:19.066Z,99437.64
2022-10-07T22:27:25.091Z,99435.23
2022-10-07T22:30:31.168Z,99432.91
2022-10-07T22:33:38.528Z,99431.07
2022-10-07T22:36:44.401Z,99429.20
2022-10-07T22:39:50.476Z,99426.67
2022-10-07T22:42:56.557Z,99423.61
2022-10-07T22:46:02.846Z,99417.87
2022-10-07T22:49:08.964Z,99413.41
2022-10-07T22:52:15.253Z,99416.40
2022-10-07T22:55:21.457Z,99411.09
2022-10-07T22:58:26.047Z,99416.36
2022-10-07T23:01:33.326Z,99409.14
2022-10-07T23:04:39.461Z,99408.89
2022-10-07T23:07:45.457Z,99403.64
2022-10-07T23:10:59.412Z,99405.52
2022-10-07T23:14:05.744Z,99404.77
2022-10-07T23:17:12.212Z,99402.98
2022-10-07T23:20:19.307Z,99403.94
2022-10-07T23:23:25.459Z,99403.11
2022-10-07T23:26:30.445Z,99402.02
2022-10-07T23:29:36.566Z,99401.69
2022-10-07T23:32:45.888Z,99399.96
2022-10-07T23:35:56.064Z,99398.94
2022-10-07T23:39:02.835Z,99399.64
2022-10-07T23:42:08.896Z,99397.36
2022-10-07T23:45:15.452Z,99391.91
2022-10-07T23:48:21.867Z,99385.23
2022-10-07T23:51:29.003Z,99385.19
2022-10-07T23:54:35.118Z,99385.58
2022-10-07T23:57:41.800Z,99385.23
